createdAt,value
2023-11-13T00:00:17.101Z,100372.81
2023-11-13T00:01:20.263Z,100378.16
2023-11-13T00:02:24.213Z,100379.06
2023-11-13T00:03:27.963Z,100382.53
2023-11-13T00:04:30.766Z,100377.44
2023-11-13T00:05:33.511Z,100380.03
2023-11-13T00:06:36.645Z,100380.97
2023-11-13T00:07:39.452Z,100369.72
2023-11-13T00:08:43.846Z,100377.50
2023-11-13T00:09:46.943Z,100377.53
2023-11-13T00:10:50.058Z,100373.34
2023-11-13T00:11:54.368Z,100329.25
2023-11-13T00:12:57.367Z,100371.81
2023-11-13T00:14:00.496Z,100374.47
2023-11-13T00:15:05.359Z,100374.47
2023-11-13T00:16:08.154Z,100369.31
2023-11-13T00:17:11.407Z,100373.69
2023-11-13T00:18:14.392Z,100371.12
2023-11-13T00:19:17.871Z,100366.88
2023-11-13T00:20:21.272Z,100371.22
2023-11-13T00:21:24.180Z,100377.34
2023-11-13T00:22:27.766Z,100385.25
2023-11-13T00:23:30.735Z,100371.84
2023-11-13T00:24:33.414Z,100386.16
2023-11-13T00:25:36.073Z,100393.88
2023-11-13T00:26:38.693Z,100396.59
2023-11-13T00:27:41.623Z,100404.41
2023-11-13T00:28:44.198Z,100397.53
2023-11-13T00:29:46.793Z,100406.13
2023-11-13T00:30:49.748Z,100403.41
2023-11-13T00:31:52.415Z,100404.22
2023-11-13T00:32:56.336Z,100402.41
2023-11-13T00:33:59.721Z,100405.84
2023-11-13T00:35:02.617Z,100407.69
2023-11-13T00:36:07.493Z,100400.75
2023-11-13T00:37:10.680Z,100362.44
2023-11-13T00:38:14.768Z,100403.41
2023-11-13T00:39:20.699Z,100404.28
2023-11-13T00:40:25.358Z,100404.28
2023-11-13T00:41:32.906Z,100408.56
2023-11-13T00:42:35.778Z,100400.28
2023-11-13T00:43:39.348Z,100403.94
2023-11-13T00:44:42.172Z,100393.66
2023-11-13T00:45:45.930Z,100395.50
2023-11-13T00:46:48.977Z,100401.50
2023-11-13T00:47:51.913Z,100401.50
2023-11-13T00:48:55.410Z,100412.72
2023-11-13T00:49:58.210Z,100408.38
2023-11-13T00:51:02.759Z,100396.34
2023-11-13T00:52:05.936Z,100386.19
2023-11-13T00:53:08.850Z,100403.22
2023-11-13T00:54:11.968Z,100384.50
2023-11-13T00:55:14.723Z,100406.69
2023-11-13T00:56:17.854Z,100399.75
2023-11-13T00:57:20.474Z,100359.84
2023-11-13T00:58:25.972Z,100388.72
2023-11-13T00:59:29.255Z,100395.50
2023-11-13T01:00:33.239Z,100395.41
2023-11-13T01:01:36.319Z,100396.34
2023-11-13T01:02:39.448Z,100401.41
2023-11-13T01:03:44.099Z,100398.81
2023-11-13T01:04:47.452Z,100401.50
2023-11-13T01:05:51.569Z,100408.38
2023-11-13T01:06:56.420Z,100399.78
2023-11-13T01:07:59.364Z,100403.25
2023-11-13T01:09:02.205Z,100403.34
2023-11-13T01:10:06.918Z,100399.13
2023-11-13T01:11:09.874Z,100371.25
2023-11-13T01:12:13.564Z,100398.31
2023-11-13T01:13:16.309Z,100413.00
2023-11-13T01:14:19.519Z,100414.00
2023-11-13T01:15:24.128Z,100408.03
2023-11-13T01:16:27.162Z,100409.75
2023-11-13T01:17:30.755Z,100417.63
2023-11-13T01:18:34.091Z,100409.69
2023-11-13T01:19:37.055Z,100402.84
2023-11-13T01:20:40.411Z,100425.03
2023-11-13T01:21:43.334Z,100407.75
2023-11-13T01:22:46.819Z,100417.25
2023-11-13T01:23:49.583Z,100410.34
2023-11-13T01:24:52.194Z,100416.63
2023-11-13T01:25:55.468Z,100420.16
2023-11-13T01:26:58.579Z,100422.66
2023-11-13T01:28:01.290Z,100402.13
2023-11-13T01:29:04.819Z,100420.16
2023-11-13T01:30:09.895Z,100422.75
2023-11-13T01:31:16.396Z,100427.00
2023-11-13T01:32:19.187Z,100425.34
2023-11-13T01:33:23.263Z,100413.09
2023-11-13T01:34:26.231Z,100422.75
2023-11-13T01:35:29.331Z,100425.25
2023-11-13T01:36:32.218Z,100428.06
2023-11-13T01:37:35.080Z,100423.78
2023-11-13T01:38:37.995Z,100424.56
2023-11-13T01:39:40.697Z,100423.69
2023-11-13T01:40:43.484Z,100429.75
2023-11-13T01:41:47.012Z,100420.37
2023-11-13T01:42:50.160Z,100430.66
2023-11-13T01:43:52.727Z,100426.53
2023-11-13T01:44:57.105Z,100433.09
2023-11-13T01:46:00.488Z,100439.25
2023-11-13T01:47:05.575Z,100426.53
2023-11-13T01:48:09.072Z,100447.09
2023-11-13T01:49:12.461Z,100440.94
2023-11-13T01:50:15.498Z,100440.03
2023-11-13T01:51:18.110Z,100440.00
2023-11-13T01:52:21.841Z,100438.28
2023-11-13T01:53:25.930Z,100430.53
2023-11-13T01:54:29.220Z,100433.78
2023-11-13T01:55:32.278Z,100436.66
2023-11-13T01:56:36.168Z,100437.63
2023-11-13T01:57:40.467Z,100435.69
2023-11-13T01:58:43.929Z,100437.37
2023-11-13T01:59:46.886Z,100442.59
2023-11-13T02:00:50.481Z,100444.41
2023-11-13T02:01:54.673Z,100443.38
2023-11-13T02:03:00.170Z,100444.28
2023-11-13T02:04:04.712Z,100448.56
2023-11-13T02:05:08.418Z,100442.38
2023-11-13T02:06:11.597Z,100442.25
2023-11-13T02:07:14.791Z,100442.25
2023-11-13T02:08:17.723Z,100445.50
2023-11-13T02:09:21.754Z,100449.81
2023-11-13T02:10:27.623Z,100443.78
2023-11-13T02:11:31.908Z,100443.78
2023-11-13T02:12:35.970Z,100453.34
2023-11-13T02:13:42.082Z,100453.44
2023-11-13T02:14:45.239Z,100433.09
2023-11-13T02:15:48.278Z,100453.59
2023-11-13T02:16:51.281Z,100462.19
2023-11-13T02:18:05.225Z,100460.50
2023-11-13T02:19:08.350Z,100457.91
2023-11-13T02:20:11.435Z,100454.44
2023-11-13T02:21:14.614Z,100457.03
2023-11-13T02:22:17.288Z,100451.16
2023-11-13T02:23:20.331Z,100458.81
2023-11-13T02:24:24.543Z,100460.53
2023-11-13T02:25:27.828Z,100460.75
2023-11-13T02:26:30.734Z,100464.34
2023-11-13T02:27:33.642Z,100458.13
2023-11-13T02:28:36.714Z,100459.81
2023-11-13T02:29:39.326Z,100459.75
2023-11-13T02:30:41.956Z,100457.91
2023-11-13T02:31:52.827Z,100454.50
2023-11-13T02:32:57.432Z,100444.28
2023-11-13T02:34:00.688Z,100461.34
2023-11-13T02:35:06.085Z,100454.37
2023-11-13T02:36:09.324Z,100452.53
2023-11-13T02:37:14.209Z,100446.38
2023-11-13T02:38:17.148Z,100447.31
2023-11-13T02:39:21.305Z,100444.75
2023-11-13T02:40:24.275Z,100445.69
2023-11-13T02:41:27.064Z,100445.66
2023-11-13T02:42:35.587Z,100444.22
2023-11-13T02:43:38.654Z,100445.97
2023-11-13T02:44:41.877Z,100431.25
2023-11-13T02:45:44.544Z,100439.75
2023-11-13T02:46:47.591Z,100431.03
2023-11-13T02:47:52.747Z,100433.50
2023-11-13T02:48:55.747Z,100432.59
2023-11-13T02:49:59.602Z,100435.19
2023-11-13T02:51:02.981Z,100439.47
2023-11-13T02:52:06.046Z,100445.31
2023-11-13T02:53:09.011Z,100443.56
2023-11-13T02:54:11.896Z,100445.22
2023-11-13T02:55:15.295Z,100446.13
2023-11-13T02:56:18.180Z,100448.75
2023-11-13T02:57:20.817Z,100448.81
2023-11-13T02:58:23.674Z,100448.75
2023-11-13T02:59:26.552Z,100443.50
2023-11-13T03:00:29.945Z,100444.31
2023-11-13T03:01:33.110Z,100448.59
2023-11-13T03:02:36.109Z,100452.78
2023-11-13T03:03:39.587Z,100453.63
2023-11-13T03:04:42.497Z,100449.41
2023-11-13T03:05:45.820Z,100454.47
2023-11-13T03:06:48.720Z,100451.94
2023-11-13T03:07:52.089Z,100453.63
2023-11-13T03:08:55.115Z,100448.41
2023-11-13T03:09:58.586Z,100420.13
2023-11-13T03:11:01.838Z,100437.97
2023-11-13T03:12:04.870Z,100444.19
2023-11-13T03:13:07.547Z,100438.97
2023-11-13T03:14:10.754Z,100443.22
2023-11-13T03:15:13.790Z,100447.66
2023-11-13T03:16:17.295Z,100445.94
2023-11-13T03:17:21.283Z,100438.97
2023-11-13T03:18:23.874Z,100450.84
2023-11-13T03:19:26.550Z,100458.50
2023-11-13T03:20:30.142Z,100465.72
2023-11-13T03:21:33.275Z,100463.06
2023-11-13T03:22:36.127Z,100475.94
2023-11-13T03:23:39.031Z,100474.34
2023-11-13T03:24:41.760Z,100489.97
2023-11-13T03:25:44.824Z,100492.62
2023-11-13T03:26:48.794Z,100489.13
2023-11-13T03:27:51.847Z,100497.75
2023-11-13T03:28:54.493Z,100492.62
2023-11-13T03:29:59.247Z,100497.97
2023-11-13T03:31:02.482Z,100488.72
2023-11-13T03:32:06.293Z,100497.25
2023-11-13T03:33:09.251Z,100508.59
2023-11-13T03:34:13.880Z,100499.09
2023-11-13T03:35:18.592Z,100498.09
2023-11-13T03:36:21.553Z,100496.34
2023-11-13T03:37:24.712Z,100496.31
2023-11-13T03:38:28.444Z,100482.69
2023-11-13T03:39:31.293Z,100498.91
2023-11-13T03:40:34.454Z,100498.84
2023-11-13T03:41:37.614Z,100505.66
2023-11-13T03:42:40.519Z,100499.69
2023-11-13T03:43:43.380Z,100497.03
2023-11-13T03:44:46.603Z,100499.84
2023-11-13T03:45:49.515Z,100501.44
2023-11-13T03:46:53.156Z,100511.75
2023-11-13T03:47:56.476Z,100512.63
2023-11-13T03:48:59.426Z,100493.81
2023-11-13T03:50:02.414Z,100509.97
2023-11-13T03:51:05.593Z,100507.25
2023-11-13T03:52:11.755Z,100511.47
2023-11-13T03:53:14.642Z,100502.75
2023-11-13T03:54:17.283Z,100508.78
2023-11-13T03:55:20.172Z,100506.19
2023-11-13T03:56:24.953Z,100515.56
2023-11-13T03:57:27.554Z,100508.56
2023-11-13T03:58:30.689Z,100501.66
2023-11-13T03:59:33.565Z,100511.09
2023-11-13T04:00:37.614Z,100510.16
2023-11-13T04:01:40.562Z,100505.84
2023-11-13T04:02:43.318Z,100510.22
2023-11-13T04:03:48.141Z,100507.66
2023-11-13T04:04:51.219Z,100504.44
2023-11-13T04:05:55.320Z,100499.06
2023-11-13T04:06:58.738Z,100506.88
2023-11-13T04:08:01.554Z,100506.81
2023-11-13T04:09:04.262Z,100502.47
2023-11-13T04:10:14.204Z,100493.75
2023-11-13T04:11:17.736Z,100497.97
2023-11-13T04:12:21.008Z,100488.63
2023-11-13T04:13:26.732Z,100491.94
2023-11-13T04:14:30.015Z,100490.88
2023-11-13T04:15:32.950Z,100500.03
2023-11-13T04:16:36.475Z,100498.94
2023-11-13T04:17:39.572Z,100497.97
2023-11-13T04:18:42.418Z,100491.75
2023-11-13T04:19:45.004Z,100491.66
2023-11-13T04:20:47.620Z,100494.19
2023-11-13T04:21:50.641Z,100489.84
2023-11-13T04:22:55.791Z,100493.25
2023-11-13T04:24:02.202Z,100484.66
2023-11-13T04:25:05.497Z,100482.16
2023-11-13T04:26:10.280Z,100472.69
2023-11-13T04:27:13.687Z,100432.69
2023-11-13T04:28:19.388Z,100476.00
2023-11-13T04:29:23.188Z,100476.94
2023-11-13T04:30:26.037Z,100479.78
2023-11-13T04:31:29.859Z,100467.56
2023-11-13T04:32:32.834Z,100472.75
2023-11-13T04:33:36.799Z,100474.44
2023-11-13T04:34:39.790Z,100477.75
2023-11-13T04:35:42.657Z,100474.37
2023-11-13T04:36:45.692Z,100483.78
2023-11-13T04:37:48.630Z,100481.22
2023-11-13T04:38:51.523Z,100455.22
2023-11-13T04:39:54.174Z,100484.19
2023-11-13T04:40:57.029Z,100482.38
2023-11-13T04:42:00.075Z,100473.59
2023-11-13T04:43:06.234Z,100470.16
2023-11-13T04:44:10.091Z,100458.53
2023-11-13T04:45:14.009Z,100468.66
2023-11-13T04:46:17.113Z,100467.09
2023-11-13T04:47:19.800Z,100465.31
2023-11-13T04:48:23.064Z,100466.91
2023-11-13T04:49:26.231Z,100469.50
2023-11-13T04:50:29.653Z,100467.75
2023-11-13T04:51:32.733Z,100469.50
2023-11-13T04:52:35.435Z,100459.06
2023-11-13T04:53:38.525Z,100472.00
2023-11-13T04:54:41.423Z,100456.53
2023-11-13T04:55:44.393Z,100470.28
2023-11-13T04:56:47.342Z,100465.91
2023-11-13T04:57:50.215Z,100458.28
2023-11-13T04:58:53.109Z,100453.03
2023-11-13T04:59:56.268Z,100457.28
2023-11-13T05:00:59.275Z,100457.41
2023-11-13T05:02:02.425Z,100462.50
2023-11-13T05:03:05.456Z,100459.03
2023-11-13T05:04:08.698Z,100454.63
2023-11-13T05:05:12.612Z,100458.91
2023-11-13T05:06:18.827Z,100453.72
2023-11-13T05:07:22.076Z,100462.47
2023-11-13T05:08:26.629Z,100459.12
2023-11-13T05:09:29.350Z,100462.50
2023-11-13T05:10:33.760Z,100464.16
2023-11-13T05:11:36.384Z,100458.09
2023-11-13T05:12:40.088Z,100417.38
2023-11-13T05:13:42.996Z,100458.06
2023-11-13T05:14:45.668Z,100461.50
2023-11-13T05:15:48.683Z,100457.13
2023-11-13T05:16:56.252Z,100461.38
2023-11-13T05:17:58.891Z,100462.22
2023-11-13T05:19:01.533Z,100461.41
2023-11-13T05:20:06.511Z,100463.91
2023-11-13T05:21:10.794Z,100463.91
2023-11-13T05:22:15.167Z,100454.41
2023-11-13T05:23:18.049Z,100463.13
2023-11-13T05:24:21.199Z,100459.59
2023-11-13T05:25:24.142Z,100460.63
2023-11-13T05:26:27.330Z,100463.06
2023-11-13T05:27:30.171Z,100463.03
2023-11-13T05:28:32.905Z,100458.69
2023-11-13T05:29:35.589Z,100467.31
2023-11-13T05:30:41.522Z,100463.75
2023-11-13T05:31:44.752Z,100470.56
2023-11-13T05:32:47.737Z,100468.06
2023-11-13T05:33:50.746Z,100478.53
2023-11-13T05:34:53.705Z,100478.56
2023-11-13T05:35:57.383Z,100475.09
2023-11-13T05:37:00.649Z,100479.78
2023-11-13T05:38:04.815Z,100482.47
2023-11-13T05:39:08.885Z,100479.47
2023-11-13T05:40:16.171Z,100481.19
2023-11-13T05:41:19.151Z,100490.34
2023-11-13T05:42:24.560Z,100484.53
2023-11-13T05:43:27.507Z,100493.12
2023-11-13T05:44:30.132Z,100448.97
2023-11-13T05:45:33.078Z,100483.69
2023-11-13T05:46:35.848Z,100459.03
2023-11-13T05:47:39.174Z,100483.78
2023-11-13T05:48:41.983Z,100480.34
2023-11-13T05:49:45.482Z,100484.69
2023-11-13T05:50:48.139Z,100488.13
2023-11-13T05:51:51.082Z,100491.63
2023-11-13T05:52:54.130Z,100499.44
2023-11-13T05:53:56.976Z,100490.72
2023-11-13T05:54:59.933Z,100491.56
2023-11-13T05:56:02.821Z,100496.59
2023-11-13T05:57:05.951Z,100495.59
2023-11-13T05:58:09.202Z,100496.28
2023-11-13T05:59:12.062Z,100496.28
2023-11-13T06:00:14.916Z,100505.72
2023-11-13T06:01:19.690Z,100486.81
2023-11-13T06:02:22.770Z,100493.66
2023-11-13T06:03:26.415Z,100503.88
2023-11-13T06:04:29.568Z,100504.69
2023-11-13T06:05:33.012Z,100500.44
2023-11-13T06:06:35.934Z,100509.91
2023-11-13T06:07:38.967Z,100509.81
2023-11-13T06:08:50.895Z,100509.66
2023-11-13T06:09:53.926Z,100507.84
2023-11-13T06:10:56.678Z,100517.59
2023-11-13T06:11:59.851Z,100521.06
2023-11-13T06:13:03.642Z,100511.56
2023-11-13T06:14:07.074Z,100517.59
2023-11-13T06:15:18.360Z,100527.97
2023-11-13T06:16:22.060Z,100527.12
2023-11-13T06:17:26.669Z,100523.62
2023-11-13T06:18:31.906Z,100528.72
2023-11-13T06:19:34.984Z,100522.69
2023-11-13T06:20:37.929Z,100535.53
2023-11-13T06:21:40.918Z,100538.03
2023-11-13T06:22:45.123Z,100537.84
2023-11-13T06:23:48.046Z,100542.97
2023-11-13T06:24:51.941Z,100531.00
2023-11-13T06:25:54.967Z,100539.44
2023-11-13T06:26:57.881Z,100541.13
2023-11-13T06:28:00.929Z,100500.28
2023-11-13T06:29:05.087Z,100547.94
2023-11-13T06:30:13.873Z,100544.41
2023-11-13T06:31:27.089Z,100538.25
2023-11-13T06:32:30.846Z,100544.22
2023-11-13T06:33:34.380Z,100543.31
2023-11-13T06:34:37.306Z,100544.16
2023-11-13T06:35:40.129Z,100544.97
2023-11-13T06:36:45.764Z,100544.06
2023-11-13T06:37:48.787Z,100545.81
2023-11-13T06:38:51.736Z,100541.41
2023-11-13T06:39:54.405Z,100538.69
2023-11-13T06:40:57.287Z,100537.00
2023-11-13T06:41:59.920Z,100547.25
2023-11-13T06:43:02.705Z,100541.25
2023-11-13T06:44:09.001Z,100553.91
2023-11-13T06:45:14.280Z,100544.22
2023-11-13T06:46:17.670Z,100549.19
2023-11-13T06:47:20.913Z,100550.00
2023-11-13T06:48:23.929Z,100544.09
2023-11-13T06:49:27.431Z,100551.66
2023-11-13T06:50:30.082Z,100549.94
2023-11-13T06:51:32.981Z,100553.28
2023-11-13T06:52:36.002Z,100553.19
2023-11-13T06:53:38.848Z,100559.22
2023-11-13T06:54:42.248Z,100554.03
2023-11-13T06:55:44.971Z,100551.72
2023-11-13T06:56:47.937Z,100554.94
2023-11-13T06:57:50.787Z,100566.19
2023-11-13T06:58:53.522Z,100558.56
2023-11-13T06:59:57.061Z,100551.56
2023-11-13T07:01:00.010Z,100560.91
2023-11-13T07:02:02.823Z,100566.09
2023-11-13T07:03:06.013Z,100562.56
2023-11-13T07:04:11.807Z,100566.84
2023-11-13T07:05:16.815Z,100567.66
2023-11-13T07:06:19.992Z,100569.31
2023-11-13T07:07:25.394Z,100570.09
2023-11-13T07:08:28.272Z,100573.63
2023-11-13T07:09:31.468Z,100569.25
2023-11-13T07:10:37.430Z,100570.19
2023-11-13T07:11:44.486Z,100577.91
2023-11-13T07:12:47.363Z,100576.56
2023-11-13T07:13:50.179Z,100561.19
2023-11-13T07:14:53.000Z,100571.38
2023-11-13T07:15:56.244Z,100552.09
2023-11-13T07:16:59.312Z,100570.00
2023-11-13T07:18:02.265Z,100573.34
2023-11-13T07:19:05.076Z,100573.25
2023-11-13T07:20:10.778Z,100562.03
2023-11-13T07:21:13.982Z,100580.94
2023-11-13T07:22:16.612Z,100580.03
2023-11-13T07:23:19.502Z,100580.84
2023-11-13T07:24:22.414Z,100577.41
2023-11-13T07:25:25.389Z,100571.12
2023-11-13T07:26:28.588Z,100564.16
2023-11-13T07:27:31.759Z,100567.41
2023-11-13T07:28:34.926Z,100566.47
2023-11-13T07:29:37.872Z,100571.47
2023-11-13T07:30:43.800Z,100567.00
2023-11-13T07:31:47.096Z,100568.53
2023-11-13T07:32:50.225Z,100565.84
2023-11-13T07:33:52.965Z,100567.53
2023-11-13T07:34:56.052Z,100556.19
2023-11-13T07:35:58.892Z,100569.19
2023-11-13T07:37:02.461Z,100556.13
2023-11-13T07:38:08.989Z,100557.00
2023-11-13T07:39:13.177Z,100546.63
2023-11-13T07:40:16.922Z,100553.28
2023-11-13T07:41:20.731Z,100560.19
2023-11-13T07:53:39.495Z,100551.12
2023-11-13T07:54:42.955Z,100555.69
2023-11-13T07:55:45.879Z,100550.41
2023-11-13T07:56:49.291Z,100551.81
2023-11-13T07:57:53.554Z,100543.06
2023-11-13T07:58:58.521Z,100545.56
2023-11-13T08:00:02.437Z,100547.44
2023-11-13T08:01:15.236Z,100542.50
2023-11-13T08:02:21.163Z,100543.53
2023-11-13T08:03:26.353Z,100544.22
2023-11-13T08:04:29.940Z,100548.41
2023-11-13T08:05:33.204Z,100544.22
2023-11-13T08:06:36.108Z,100551.12
2023-11-13T08:07:41.199Z,100558.03
2023-11-13T08:08:45.935Z,100549.37
2023-11-13T08:09:48.924Z,100557.41
2023-11-13T08:10:53.136Z,100560.97
2023-11-13T08:11:55.827Z,100557.72
2023-11-13T08:13:01.298Z,100562.94
2023-11-13T08:14:04.596Z,100568.91
2023-11-13T08:15:09.264Z,100556.94
2023-11-13T08:16:12.021Z,100563.59
2023-11-13T08:17:15.042Z,100567.88
2023-11-13T08:18:19.931Z,100559.09
2023-11-13T08:19:22.956Z,100562.56
2023-11-13T08:20:27.736Z,100560.06
2023-11-13T08:21:32.576Z,100555.66
2023-11-13T08:22:36.918Z,100560.78
2023-11-13T08:23:40.528Z,100565.00
2023-11-13T08:24:43.569Z,100546.22
2023-11-13T08:25:49.243Z,100554.63
2023-11-13T08:26:52.050Z,100551.81
2023-11-13T08:27:54.779Z,100550.06
2023-11-13T08:29:01.186Z,100558.66
2023-11-13T08:30:04.389Z,100550.69
2023-11-13T08:31:09.339Z,100547.00
2023-11-13T08:32:13.002Z,100546.09
2023-11-13T08:33:16.833Z,100551.66
2023-11-13T08:34:20.734Z,100557.50
2023-11-13T08:35:23.678Z,100554.88
2023-11-13T08:36:27.777Z,100557.50
2023-11-13T08:37:32.164Z,100565.97
2023-11-13T08:38:37.145Z,100533.16
2023-11-13T08:39:40.568Z,100547.12
2023-11-13T08:40:43.568Z,100550.41
2023-11-13T08:41:46.295Z,100528.44
2023-11-13T08:42:48.957Z,100555.56
2023-11-13T08:43:51.654Z,100556.38
2023-11-13T08:44:54.693Z,100571.94
2023-11-13T08:46:00.906Z,100561.75
2023-11-13T08:47:04.783Z,100577.94
2023-11-13T08:48:08.515Z,100569.41
2023-11-13T08:49:11.203Z,100577.47
2023-11-13T08:50:15.277Z,100569.78
2023-11-13T08:51:17.986Z,100577.47
2023-11-13T08:52:21.534Z,100578.19
2023-11-13T08:53:24.456Z,100581.56
2023-11-13T08:54:29.532Z,100571.31
2023-11-13T08:55:32.872Z,100578.84
2023-11-13T08:56:35.865Z,100569.72
2023-11-13T08:57:41.629Z,100573.69
2023-11-13T08:58:44.842Z,100571.63
2023-11-13T08:59:48.263Z,100576.53
2023-11-13T09:00:53.400Z,100568.53
2023-11-13T09:01:58.071Z,100569.75
2023-11-13T09:03:11.439Z,100561.06
2023-11-13T09:04:15.087Z,100556.66
2023-11-13T09:05:20.249Z,100537.25
2023-11-13T09:06:23.512Z,100550.69
2023-11-13T09:07:26.570Z,100552.78
2023-11-13T09:08:44.899Z,100552.41
2023-11-13T09:09:56.798Z,100550.16
2023-11-13T09:11:03.089Z,100543.19
2023-11-13T09:12:08.442Z,100535.97
2023-11-13T09:13:20.724Z,100531.87
2023-11-13T09:14:23.751Z,100529.28
2023-11-13T09:15:31.849Z,100531.03
2023-11-13T09:16:39.521Z,100535.87
2023-11-13T09:17:43.188Z,100532.56
2023-11-13T09:18:50.243Z,100526.38
2023-11-13T09:19:54.554Z,100525.34
2023-11-13T09:20:57.262Z,100530.31
2023-11-13T09:22:03.432Z,100527.44
2023-11-13T09:23:10.446Z,100529.28
2023-11-13T09:24:15.850Z,100528.37
2023-11-13T09:25:27.991Z,100524.59
2023-11-13T09:26:31.043Z,100524.72
2023-11-13T09:27:34.171Z,100526.94
2023-11-13T09:28:37.413Z,100531.22
2023-11-13T09:29:44.815Z,100532.63
2023-11-13T09:30:47.753Z,100528.06
2023-11-13T09:31:50.586Z,100516.75
2023-11-13T09:32:54.014Z,100525.63
2023-11-13T09:34:03.444Z,100528.31
2023-11-13T09:35:19.329Z,100525.47
2023-11-13T09:36:22.921Z,100527.78
2023-11-13T09:37:28.705Z,100530.97
2023-11-13T09:38:32.478Z,100531.19
2023-11-13T09:39:40.525Z,100526.84
2023-11-13T09:40:43.187Z,100516.66
2023-11-13T09:41:52.172Z,100531.41
2023-11-13T09:43:04.855Z,100537.31
2023-11-13T09:44:07.926Z,100511.19
2023-11-13T09:45:14.003Z,100526.03
2023-11-13T09:46:18.266Z,100528.56
2023-11-13T09:47:24.710Z,100528.63
2023-11-13T09:48:31.964Z,100531.50
2023-11-13T09:49:44.874Z,100528.81
2023-11-13T09:51:02.186Z,100526.59
2023-11-13T09:52:07.696Z,100515.09
2023-11-13T09:53:16.725Z,100521.00
2023-11-13T09:54:22.306Z,100524.63
2023-11-13T09:55:27.421Z,100528.94
2023-11-13T09:56:32.035Z,100525.28
2023-11-13T09:57:36.208Z,100520.31
2023-11-13T09:58:40.143Z,100514.53
2023-11-13T09:59:47.099Z,100518.09
2023-11-13T10:00:52.036Z,100516.28
2023-11-13T10:01:55.736Z,100511.84
2023-11-13T10:02:58.633Z,100499.75
2023-11-13T10:04:05.969Z,100499.97
2023-11-13T10:05:09.196Z,100500.84
2023-11-13T10:06:14.882Z,100497.22
2023-11-13T10:07:21.115Z,100492.25
2023-11-13T10:08:25.687Z,100496.31
2023-11-13T10:09:28.360Z,100498.66
2023-11-13T10:10:31.726Z,100472.91
2023-11-13T10:11:34.660Z,100491.37
2023-11-13T10:12:37.676Z,100493.75
2023-11-13T10:13:40.640Z,100488.44
2023-11-13T10:15:01.165Z,100484.06
2023-11-13T10:16:24.197Z,100484.56
2023-11-13T10:17:27.055Z,100480.41
2023-11-13T10:18:33.155Z,100485.44
2023-11-13T10:19:36.792Z,100477.47
2023-11-13T10:20:47.662Z,100480.91
2023-11-13T10:21:52.671Z,100473.66
2023-11-13T10:23:08.213Z,100472.78
2023-11-13T10:24:34.332Z,100476.09
2023-11-13T10:25:57.634Z,100444.16
2023-11-13T10:27:00.825Z,100481.06
2023-11-13T10:28:03.968Z,100474.72
2023-11-13T10:29:20.575Z,100472.53
2023-11-13T10:30:23.545Z,100469.59
2023-11-13T10:31:26.500Z,100468.38
2023-11-13T10:32:32.453Z,100461.97
2023-11-13T10:33:35.264Z,100462.66
2023-11-13T10:34:43.790Z,100468.84
2023-11-13T10:35:49.733Z,100467.50
2023-11-13T10:37:13.118Z,100461.53
2023-11-13T10:38:16.356Z,100459.91
2023-11-13T10:39:36.447Z,100459.66
2023-11-13T10:40:45.362Z,100456.81
2023-11-13T10:41:48.727Z,100463.81
2023-11-13T10:42:51.562Z,100446.22
2023-11-13T10:43:54.624Z,100459.41
2023-11-13T10:45:01.024Z,100448.13
2023-11-13T10:46:06.113Z,100463.56
2023-11-13T10:47:50.783Z,100458.97
2023-11-13T10:48:57.855Z,100456.75
2023-11-13T10:50:01.887Z,100453.41
2023-11-13T10:51:06.811Z,100454.97
2023-11-13T10:52:10.561Z,100451.75
2023-11-13T10:53:14.645Z,100446.81
2023-11-13T10:54:20.151Z,100452.16
2023-11-13T10:55:23.566Z,100449.16
2023-11-13T10:56:27.074Z,100450.00
2023-11-13T10:57:30.217Z,100454.41
2023-11-13T10:58:33.761Z,100449.91
2023-11-13T10:59:37.382Z,100420.16
2023-11-13T11:00:40.904Z,100454.56
2023-11-13T11:01:44.881Z,100447.19
2023-11-13T11:02:52.462Z,100455.19
2023-11-13T11:04:05.478Z,100450.22
2023-11-13T11:05:17.642Z,100451.66
2023-11-13T11:06:27.179Z,100438.94
2023-11-13T11:07:32.680Z,100443.56
2023-11-13T11:08:36.310Z,100438.41
2023-11-13T11:09:39.470Z,100443.94
2023-11-13T11:10:42.613Z,100446.06
2023-11-13T11:11:47.740Z,100448.69
2023-11-13T11:12:54.424Z,100441.16
2023-11-13T11:14:18.418Z,100432.59
2023-11-13T11:15:41.023Z,100429.66
2023-11-13T11:16:53.184Z,100420.88
2023-11-13T11:18:25.219Z,100418.56
2023-11-13T11:19:38.781Z,100422.66
2023-11-13T11:21:19.908Z,100419.59
2023-11-13T11:22:34.801Z,100428.72
2023-11-13T11:23:52.615Z,100426.41
2023-11-13T11:24:58.320Z,100433.59
2023-11-13T11:26:01.888Z,100430.53
2023-11-13T11:27:05.039Z,100430.59
2023-11-13T11:28:07.785Z,100428.25
2023-11-13T11:29:33.290Z,100432.53
2023-11-13T11:30:39.257Z,100424.22
2023-11-13T11:31:44.517Z,100415.25
2023-11-13T11:32:57.118Z,100412.19
2023-11-13T11:34:00.626Z,100413.19
2023-11-13T11:35:05.343Z,100413.03
2023-11-13T11:36:10.332Z,100386.66
2023-11-13T11:37:15.543Z,100417.97
2023-11-13T11:38:28.888Z,100423.44
2023-11-13T11:39:45.525Z,100424.72
2023-11-13T11:40:49.707Z,100424.06
2023-11-13T11:41:54.626Z,100420.53
2023-11-13T11:42:57.494Z,100386.00
2023-11-13T11:44:03.880Z,100397.34
2023-11-13T11:45:08.520Z,100413.91
2023-11-13T11:46:14.467Z,100411.78
2023-11-13T11:47:27.087Z,100400.53
2023-11-13T11:48:30.288Z,100411.09
2023-11-13T11:49:33.511Z,100389.37
2023-11-13T11:50:38.743Z,100398.84
2023-11-13T11:51:41.911Z,100392.06
2023-11-13T11:52:53.110Z,100390.47
2023-11-13T11:53:59.587Z,100389.69
2023-11-13T11:55:05.319Z,100390.84
2023-11-13T11:56:08.702Z,100401.31
2023-11-13T11:57:13.234Z,100407.34
2023-11-13T11:58:18.049Z,100394.72
2023-11-13T11:59:21.257Z,100401.47
2023-11-13T12:00:26.667Z,100402.47
2023-11-13T12:01:29.944Z,100404.38
2023-11-13T12:02:34.285Z,100408.44
2023-11-13T12:03:37.650Z,100405.12
2023-11-13T12:04:41.366Z,100405.19
2023-11-13T12:05:44.436Z,100398.22
2023-11-13T12:06:50.391Z,100381.41
2023-11-13T12:07:53.916Z,100392.22
2023-11-13T12:08:56.851Z,100395.41
2023-11-13T12:09:59.451Z,100386.66
2023-11-13T12:11:03.413Z,100385.59
2023-11-13T12:12:06.898Z,100361.75
2023-11-13T12:13:10.640Z,100381.12
2023-11-13T12:14:14.359Z,100379.28
2023-11-13T12:15:17.108Z,100381.75
2023-11-13T12:16:23.204Z,100380.97
2023-11-13T12:17:27.591Z,100386.13
2023-11-13T12:18:30.616Z,100389.28
2023-11-13T12:19:34.990Z,100392.53
2023-11-13T12:20:37.914Z,100397.00
2023-11-13T12:21:45.078Z,100385.44
2023-11-13T12:22:48.444Z,100376.28
2023-11-13T12:23:54.074Z,100394.81
2023-11-13T12:24:56.875Z,100388.66
2023-11-13T12:25:59.928Z,100392.22
2023-11-13T12:27:02.701Z,100358.72
2023-11-13T12:28:08.523Z,100386.97